Tiempo atmosférico en la estación meteorológica de Colmenar Viejo, Madrid (1004 m.)



Fecha
DESCASC
Temp. máxima en grados centígrados (hora)
DESCASC
Temp. mínima en grados centígrados (hora)
DESCASC
Temp. media en grados centígrados
DESCASC
Racha de viento máxima en m/sg (hora)
DESCASC
Velocidad máxima media en intervalos de 10 minutos(hora)
DESCASC
Precipitaciones diarias en mm
DESCASC
Precipitaciones de 00:00 a 06:00 en mm
DESCASC
Precipitaciones de 06:00 a 12:00 en mm
DESCASC
Precipitaciones de 12:00 a 18:00 en mm
DESCASC
Precipitaciones de 18:00 a 24:00 en mm
DESCASC
18-10-2018 17.8 (14:30) 11.2 (07:50) 14.5 12.22 (15:20) 8.06 (15:20) 4.3 0 0.2 0 4.1
17-10-2018 19.2 (16:10) 9.4 (08:30) 14.3 10.83 (13:00) 3.33 (18:10) 0 0 0 0 0
16-10-2018 18.2 (17:00) 7.3 (07:20) 12.8 9.72 (14:50) 4.72 (14:00) 0.1 0.1 0 0 0
15-10-2018 13 (15:30) 5.9 (08:20) 9.5 8.61 (13:40) 3.61 (16:20) 0.2 0 0 0 0.2
14-10-2018 17.6 (00:10) 8.4 (00:00) 13 9.44 (06:40) 4.17 (06:40) 2.4 0 2.1 0.3 0
13-10-2018 21.9 (17:50) 13.2 (00:00) 17.5 5.56 (17:30) 2.78 (23:50) 0 0 0 0 0
12-10-2018 18.3 (17:40) 13.3 (00:00) 15.8 6.67 (00:10) 3.33 (00:10) 5 4 0.5 0.5 0
11-10-2018 16.4 (17:30) 11.9 (09:00) 14.1 7.5 (16:40) 4.17 (16:40) 7.8 0 6.5 1.3 0
10-10-2018 15.8 (17:10) 8.4 (00:00) 12.1 5 (17:30) 2.78 (17:30) 2.8 2 0.7 0.1 0
09-10-2018 16.9 (15:30) 8.4 (06:00) 12.6 13.61 (14:30) 5.83 (19:50) 2.2 0 0 0 2.2
08-10-2018 17.6 (15:40) 6.7 (08:00) 12.2 8.89 (18:30) 3.89 (18:00) 0 0 0 0 0
07-10-2018 16.3 (17:20) 7.6 (08:30) 11.9 13.06 (11:30) 6.39 (11:00) 0 0 0 0 0
06-10-2018 24.5 (17:00) 12.2 (07:40) 18.3 11.67 (16:20) 5.56 (17:40) 0 0 0 0 0
05-10-2018 24.2 (17:10) 12.4 (07:50) 18.3 10 (13:50) 2.78 (02:50) 0 0 0 0 0
04-10-2018 24.7 (17:10) 12.4 (00:00) 18.6 6.67 (00:10) 3.89 (00:10) 0 0 0 0 0
03-10-2018 24.6 (17:20) 12.2 (00:00) 18.4 8.89 (12:10) 4.17 (23:50) 0 0 0 0 0
02-10-2018 23.6 (17:30) 8.5 (00:00) 16.1 9.72 (13:50) 2.78 (13:10) 0 0 0 0 0
01-10-2018 23.5 (17:10) 10.8 (00:00) 17.2 8.06 (12:20) 4.17 (01:20) 0 0 0 0 0
30-09-2018 27.9 (16:40) 15.1 (00:00) 21.5 6.67 (16:20) 2.78 (17:40) 0 0 0 0 0
29-09-2018 25.6 (17:10) 15.7 (00:00) 20.7 10.56 (01:00) 5.83 (01:10) 0 0 0 0 0
28-09-2018 26.1 (17:30) 13.3 (00:00) 19.7 8.89 (19:20) 5.28 (23:59) 0 0 0 0 0
27-09-2018 24.9 (16:50) 13.1 (00:00) 19 8.33 (17:30) 3.89 (17:40) 0 0 0 0 0
26-09-2018 22.7 (17:20) 15.2 (00:00) 19 10 (14:30) 3.89 (21:40) 0.7 0 0.1 0.6 0
25-09-2018 27.4 (17:50) 14.7 (00:00) 21 10.83 (22:50) 5 (23:00) 0 0 0 0 0
24-09-2018 29.4 (17:50) 17 (00:00) 23.2 13.61 (22:00) 5.83 (02:00) 0 0 0 0 0
23-09-2018 30.7 (17:20) 18.4 (06:20) 24.6 6.67 (20:30) 2.78 (23:50) 0 0 0 0 0
22-09-2018 29.6 (17:10) 17.3 (06:30) 23.4 6.11 (15:50) 2.78 (15:10) 0 0 0 0 0
21-09-2018 27.9 (14:40) 17.1 (08:20) 22.5 7.22 (11:20) 2.78 (13:40) 0 0 0 0 0
20-09-2018 27.9 (16:10) 17.1 (08:00) 22.5 9.44 (13:20) 3.61 (16:00) 0 0 0 0 0

Gráficas

Temp. máximas Temp. mínimas Temp. medias Precipitaciones Rachas de viento máximas Velocidades máximas media en intervalos de 10 minutos

Datos horarios

Fecha y hora oficial Temperatura (ºC) Velocidad del viento (km/h) Dirección del viento Racha (km/h) Dirección de racha Precipitación (mm) Presión (hPa) Tendencia (hPa) Humedad (%)
2018-10-19 23:00:00 11.2 17 Nordeste 47 Este 0.8 904.2 1.5 93
2018-10-19 22:00:00 11.5 23 Nordeste 42 Este 0.2 903.4 1.5 92
2018-10-19 21:00:00 11 8 Nordeste 31 Nordeste 0.6 903.2 2 99
2018-10-19 20:00:00 11.7 9 Nordeste 38 Este 1.6 902.7 1.7 97
2018-10-19 19:00:00 12.2 19 Nordeste 46 Este 0.6 901.9 0.8 94
2018-10-19 18:00:00 12.6 26 Nordeste 48 Nordeste 0.6 901.2 -0.4 91
2018-10-19 17:00:00 12.6 14 Nordeste 43 Este 0.3 901 -0.7 94
2018-10-19 16:00:00 12.8 21 Nordeste 44 Nordeste 0.4 901.1 -0.7 93
2018-10-19 15:00:00 12.2 25 Este 48 Este 1 901.6 -0.1 98
2018-10-19 14:00:00 12.3 26 Este 42 Este 1.3 901.7 0.6 98
2018-10-19 13:00:00 12.9 26 Nordeste 46 Nordeste 0.1 901.8 1 93
2018-10-19 12:00:00 12.2 22 Nordeste 44 Nordeste 0.1 901.7 1.8 94
2018-10-19 11:00:00 12.3 24 Nordeste 46 Este 0.1 901.1 1.3 94
2018-10-19 10:00:00 11.9 23 Nordeste 39 Nordeste 0.2 900.8 0.8 96
2018-10-19 09:00:00 10.8 9 Nordeste 31 Norte 2.3 899.9 1 99
2018-10-19 08:00:00 10.5 14 Este 31 Este 2.7 899.8 1.6 98
2018-10-19 07:00:00 10.6 13 Este 47 Nordeste 0.5 900 1.4 92
2018-10-19 06:00:00 11.4 25 Nordeste 49 Nordeste 0.3 898.9 0.2 83
2018-10-19 05:00:00 11.1 11 Nordeste 45 Este 0.2 898.2 -0.7 93
2018-10-19 04:00:00 11.7 24 Nordeste 60 Nordeste 1.4 898.6 -0.4 93
2018-10-19 03:00:00 11.6 12 Nordeste 37 Nordeste 0.4 898.7 -0.9 94
2018-10-19 02:00:00 12 15 Nordeste 41 Nordeste 0.4 898.9 -0.9 88
2018-10-19 01:00:00 11.5 11 Norte 28 Nordeste 0.6 899 -0.4 98
2018-10-19 00:00:00 11.6 10 Nordeste 31 Norte 1.6 899.6 0.4 98
2018-10-18 23:00:00 11.9 10 Nordeste 38 Nordeste 1.8 899.8 1.1 94
2018-10-18 22:00:00 12.4 20 Nordeste 37 Nordeste 0.6 899.4 1.5 85
2018-10-18 21:00:00 13.1 16 Este 24 Este 0.1 899.2 1.4 75
2018-10-18 20:00:00 14.8 14 Este 28 Nordeste 0 898.7 0.8 55
2018-10-18 19:00:00 15.4 13 Nordeste 35 Este 0 897.9 -0.3 53
2018-10-18 18:00:00 15.9 21 Este 35 Este 0 897.8 -0.6 51
2018-10-18 17:00:00 16.4 24 Este 37 Este 0 897.9 -1 49
2018-10-18 16:00:00 16.2 23 Nordeste 44 Este 0 898.2 -0.9 52
2018-10-18 15:00:00 16.6 26 Este 43 Este 0 898.4 -0.6 50
2018-10-18 14:00:00 17.3 24 Este 42 Este 0 898.9 -0.1 49
2018-10-18 13:00:00 16.1 21 Nordeste 38 Este 0 899.1 0.3 49
2018-10-18 12:00:00 14.6 16 Nordeste 36 Este 0.1 899 0.6 58
2018-10-18 11:00:00 13.1 10 Nordeste 26 Nordeste 0 899 0.8 62
2018-10-18 10:00:00 12.9 10 Nordeste 30 Nordeste 0.1 898.8 0.4 63
2018-10-18 09:00:00 12.1 6 Nordeste 19 Este 0 898.4 0.1 66
2018-10-18 08:00:00 11.2 8 Nordeste 21 Nordeste 0 898.2 -0.3 69
2018-10-18 07:00:00 11.6 5 Nordeste 19 Norte 0 898.4 -0.4 69
2018-10-18 06:00:00 12 4 Nordeste 17 Nordeste 0 898.3 -0.9 65
2018-10-18 05:00:00 12.3 9 Este 21 Este 0 898.5 -1 64
2018-10-18 04:00:00 12 4 Nordeste 10 Nordeste 0 898.8 -1 65
2018-10-18 03:00:00 12.1 5 Nordeste 8 Nordeste 0 899.2 -0.8 64
2018-10-18 02:00:00 12 3 Nordeste 9 Este 0 899.5 -1 64
2018-10-18 01:00:00 12.2 5 Este 7 Nordeste 0 899.8 -0.7 62
2018-10-18 00:00:00 12.4 3 Noroeste 8 Sudoeste 0 900 -0.7 59
2018-10-17 23:00:00 13.2 5 Sudoeste 12 Sudoeste 0 900.5 0.1 56
2018-10-17 22:00:00 13.2 5 Oeste 11 Oeste 0 900.5 0.4 57
2018-10-17 21:00:00 13.7 7 Oeste 13 Sudoeste 0 900.7 0.3 54
2018-10-17 20:00:00 14.6 9 Sudoeste 15 Sudoeste 0 900.4 -0.4 48
2018-10-17 19:00:00 16.7 7 Sudoeste 25 Sudoeste 0 900.1 -1.3 43
2018-10-17 18:00:00 18.2 10 Sudoeste 23 Sudoeste 0 900.4 -1.7 39
2018-10-17 17:00:00 18.7 10 Sur 22 Sudoeste 0 900.8 -2.3 39
2018-10-17 16:00:00 19 9 Sur 25 Sudoeste 0 901.4 -2.6 40
2018-10-17 15:00:00 18.5 8 Sur 22 Sur 0 902.1 -2.2 42
2018-10-17 14:00:00 17.8 5 Sudoeste 24 Sudeste 0 903.1 -1.5 46
2018-10-17 13:00:00 16.8 6 Sur 39 Sudeste 0 904 -0.5 47
2018-10-17 12:00:00 15.8 5 Sur 22 Sudeste 0 904.3 -0.1 52
2018-10-17 11:00:00 15 6 Sudeste 14 Este 0 904.6 0.1 58
2018-10-17 10:00:00 11.4 0 Calma 10 Sudeste 0 904.5 -0.1 70
2018-10-17 09:00:00 10.5 0 Calma 23 Este 0 904.4 -0.1 70
2018-10-17 08:00:00 10 3 Nordeste 9 Nordeste 0 904.5 0.1 70
2018-10-17 07:00:00 10.2 2 Nordeste 11 Este 0 904.6 0.1 70
2018-10-17 06:00:00 10.7 4 Nordeste 12 Nordeste 0 904.5 -0.1 71
2018-10-17 05:00:00 11.2 4 Nordeste 11 Nordeste 0 904.4 -0.1 69
2018-10-17 04:00:00 11.1 4 Nordeste 8 Noroeste 0 904.5 -0.1 69
2018-10-17 03:00:00 11.3 3 Norte 8 Norte 0 904.6 -0.2 69
2018-10-17 02:00:00 11.2 4 Noroeste 13 Nordeste 0 904.5 -0.2 68
2018-10-17 01:00:00 13.1 5 Nordeste 14 Norte 0 904.6 0.3 59
2018-10-17 00:00:00 13.2 5 Nordeste 15 Norte 0 904.8 0.7 58
2018-10-16 23:00:00 13.3 5 Norte 15 Norte 0 904.7 1.1 57
2018-10-16 22:00:00 13.9 8 Norte 18 Norte 0 904.3 1.2 54
2018-10-16 21:00:00 14 4 Norte 10 Nordeste 0 904.1 1.2 50
2018-10-16 20:00:00 15.1 3 Norte 8 Norte 0 903.6 0.6 45
2018-10-16 19:00:00 17.3 0 Calma 8 Sudeste 0 903.1 0.5 40
2018-10-16 18:00:00 18.1 4 Sudeste 18 Sudeste 0 902.9 0.4 39
2018-10-16 17:00:00 17.9 9 Sudeste 17 Este 0 903 0.3 40
2018-10-16 16:00:00 17.8 9 Este 23 Este 0 902.6 0 41
2018-10-16 15:00:00 17.6 8 Este 35 Este 0 902.5 0.6 44
2018-10-16 14:00:00 16.7 17 Este 26 Este 0 902.7 0.6 46
2018-10-16 13:00:00 15.7 13 Este 26 Este 0 902.6 1 50
2018-10-16 12:00:00 14.1 8 Nordeste 19 Nordeste 0 901.9 1 58
2018-10-16 11:00:00 12.9 3 Nordeste 17 Este 0 902.1 1.8 71
2018-10-16 10:00:00 10.5 0 Calma 16 Sudeste 0 901.6 1.7 85
2018-10-16 09:00:00 8.4 0 Calma 10 Norte 0 900.9 1.3 96
2018-10-16 08:00:00 7.5 6 Noroeste 11 Noroeste 0 900.3 0.8 98
2018-10-16 07:00:00 8 0 Calma 7 Sudeste 0 899.9 0.4 95
2018-10-16 06:00:00 8.2 2 Nordeste 9 Norte 0 899.6 0 95
2018-10-16 05:00:00 8.4 3 Nordeste 10 Nordeste 0 899.5 0.1 99
2018-10-16 04:00:00 8.4 5 Norte 12 Norte 0 899.5 0.1 99
2018-10-16 03:00:00 8.7 0 Calma 5 Norte 0 899.6 0.1 99
2018-10-16 02:00:00 8.5 4 Nordeste 9 Este 0.1 899.4 0 99
2018-10-16 01:00:00 8.4 5 Este 8 Nordeste 0 899.4 0.5 99
2018-10-16 00:00:00 8.5 4 Nordeste 8 Nordeste 0 899.5 1.2 99
2018-10-15 23:00:00 8.6 0 Calma 4 Noroeste 0.2 899.4 1.3 99
2018-10-15 22:00:00 8.8 0 Calma 9 Sur 0 898.9 1 97
2018-10-15 21:00:00 8.4 4 Sudoeste 9 Sudoeste 0 898.3 0.5 98
2018-10-15 20:00:00 8.4 3 Sudoeste 13 Sudoeste 0 898.1 0.7 97
2018-10-15 19:00:00 8.7 7 Sudoeste 15 Sur 0 897.9 1.1 94
2018-10-15 18:00:00 9.2 6 Sur 16 Sur 0 897.8 1.2 83
2018-10-15 17:00:00 9.2 8 Sudoeste 23 Sudoeste 0 897.4 0.4 79
2018-10-15 16:00:00 11.1 10 Sur 22 Sudoeste 0 896.8 -0.7 65
2018-10-15 15:00:00 12.2 9 Sur 19 Sur 0 896.6 -1.1 55
2018-10-15 14:00:00 12.7 4 Sur 31 Sudeste 0 897 -0.2 55
2018-10-15 13:00:00 10.7 5 Sur 12 Sur 0 897.5 0.6 64
2018-10-15 12:00:00 9.7 7 Sur 15 Sudeste 0 897.7 0.9 72
2018-10-15 11:00:00 9.9 8 Sudeste 30 Sudeste 0 897.2 0.4 72
2018-10-15 10:00:00 8.1 3 Este 27 Sur 0 896.9 0.5 78
2018-10-15 09:00:00 6.1 0 Calma 8 Noroeste 0 896.8 0.6 86
2018-10-15 08:00:00 6.3 4 Noroeste 10 Noroeste 0 896.8 0 88
2018-10-15 07:00:00 6.3 5 Noroeste 11 Noroeste 0 896.4 -0.3 88
2018-10-15 06:00:00 6.5 4 Noroeste 10 Oeste 0 896.2 -0.6 83
2018-10-15 05:00:00 7 4 Sur 12 Sudeste 0 896.8 -0.2 83
2018-10-15 04:00:00 7.6 8 Sudeste 14 Este 0 896.7 -0.6 76
2018-10-15 03:00:00 8 7 Sudeste 11 Sudeste 0 896.8 -0.5 72
2018-10-15 02:00:00 8.3 5 Sudeste 9 Este 0 897 0 70
2018-10-15 01:00:00 8.5 5 Oeste 12 Sudoeste 0 897.3 0.5 67
2018-10-15 00:00:00 8.4 6 Sur 15 Nordeste 0 897.3 0.7 66
2018-10-14 23:00:00 8.9 3 Nordeste 10 Nordeste 0 897 0.9 63
2018-10-14 22:00:00 8.6 0 Calma 13 Sur 0 896.8 1.5 60
2018-10-14 21:00:00 9 5 Sur 21 Oeste 0 896.6 1.7 58
2018-10-14 20:00:00 10.2 0 Calma 20 Este 0 896.1 1.4 57
2018-10-14 19:00:00 11.7 8 Sudoeste 28 Sudoeste 0 895.3 0.5 53
2018-10-14 18:00:00 12.1 2 Noroeste 15 Este 0 894.9 0.1 55
2018-10-14 17:00:00 12.4 9 Este 20 Este 0 894.7 0 54
2018-10-14 16:00:00 12 3 Nordeste 14 Este 0 894.8 0.1 62
2018-10-14 15:00:00 12.2 5 Nordeste 23 Este 0 894.8 0.3 60
2018-10-14 14:00:00 13 0 Calma 23 Oeste 0.3 894.7 0.1 64
2018-10-14 13:00:00 13 12 Oeste 30 Oeste 0 894.7 0.8 58
2018-10-14 12:00:00 13 11 Sudoeste 28 Sudoeste 0 894.5 1.4 70
2018-10-14 11:00:00 11.8 9 Sur 19 Sur 0 894.6 0.7 95
2018-10-14 10:00:00 11.4 7 Sudoeste 20 Sur 0.4 893.9 -0.4 98
2018-10-14 09:00:00 11.6 12 Sur 26 Sur 0 893.1 -2.3 93
2018-10-14 08:00:00 11.6 5 Noroeste 21 Sur 0.2 893.9 -2.2 91
2018-10-14 07:00:00 12 5 Sur 34 Sudoeste 1.5 894.3 -2.5 88
2018-10-14 06:00:00 14 10 Sur 24 Sur 0 895.4 -1.7 79
2018-10-14 05:00:00 14.4 6 Sudoeste 16 Sudoeste 0 896.1 -1.7 73
2018-10-14 04:00:00 14.6 0 Calma 17 Sudeste 0 896.8 -2 73
2018-10-14 03:00:00 14.3 8 Este 18 Sudeste 0 897.1 -2.3 75
2018-10-14 02:00:00 14.8 10 Este 18 Sudeste 0 897.8 -2 65
2018-10-14 01:00:00 15.8 11 Sudeste 19 Sudeste 0 898.8 -1.4 57
2018-10-14 00:00:00 17.5 10 Sudeste 17 Este 0 899.4 -1.7 53
2018-10-13 23:00:00 17.1 6 Este 9 Este 0 899.8 -1.7 54
2018-10-13 22:00:00 16.9 3 Nordeste 10 Norte 0 900.2 -1.5 53
2018-10-13 21:00:00 17.1 4 Norte 8 Noroeste 0 901.1 -1.1 53
2018-10-13 20:00:00 18.6 3 Oeste 6 Sudoeste 0 901.5 -1.4 47
2018-10-13 19:00:00 20.3 5 Sudoeste 16 Sur 0 901.7 -1.9 43
2018-10-13 18:00:00 21.6 7 Sudoeste 20 Sudeste 0 902.2 -2.2 41
2018-10-13 17:00:00 21.6 5 Sur 18 Sudoeste 0 902.9 -2.6 44
2018-10-13 16:00:00 21 6 Sur 19 Sur 0 903.6 -2.6 48
2018-10-13 15:00:00 20.1 5 Sur 18 Sur 0 904.4 -2.4 52
2018-10-13 14:00:00 19.1 6 Sur 19 Sur 0 905.5 -1.7 61
2018-10-13 13:00:00 18.8 10 Sur 17 Sudeste 0 906.2 -0.6 66
2018-10-13 12:00:00 18.3 4 Sudoeste 11 Sudoeste 0 906.8 0.1 72
2018-10-13 11:00:00 16.7 2 Sur 5 Sudeste 0 907.2 0.6 87
2018-10-13 10:00:00 14.9 0 Calma 6 Noroeste 0 906.8 -0.1 96
2018-10-13 09:00:00 13.8 2 Oeste 5 Noroeste 0 906.7 -0.3 97
2018-10-13 08:00:00 13.7 2 Sudoeste 6 Oeste 0 906.6 -0.8 97
2018-10-13 07:00:00 13.5 4 Noroeste 8 Oeste 0 906.9 -0.9 97
2018-10-13 06:00:00 13.6 0 Calma 5 Sudeste 0 907 -1.3 97
2018-10-13 05:00:00 13.5 0 Calma 8 Sudeste 0 907.4 -1.3 95
2018-10-13 04:00:00 13.8 3 Oeste 8 Oeste 0 907.8 -1.3 93
2018-10-13 03:00:00 13.8 5 Oeste 7 Oeste 0 908.3 -1.2 91
2018-10-13 02:00:00 14.1 4 Noroeste 6 Noroeste 0 908.7 -0.9 90
2018-10-13 01:00:00 14.6 3 Noroeste 6 Norte 0 909.1 -0.4 89
2018-10-13 00:00:00 14.6 4 Noroeste 9 Noroeste 0 909.5 0.1 91
2018-10-12 23:00:00 14.3 2 Noroeste 5 Noroeste 0 909.6 0.4 89
2018-10-12 22:00:00 14.8 3 Oeste 11 Sudoeste 0 909.5 0.4 85
2018-10-12 21:00:00 15.5 8 Sudoeste 15 Sudoeste 0 909.4 0.1 82
2018-10-12 20:00:00 15.9 7 Sudoeste 13 Sudoeste 0 909.2 -0.2 78
2018-10-12 19:00:00 16.9 6 Sudoeste 17 Sudoeste 0 909.1 -0.4 71
2018-10-12 18:00:00 17.6 6 Sudoeste 19 Sudoeste 0 909.3 -0.4 69
2018-10-12 17:00:00 17.7 8 Sur 18 Sur 0 909.4 -0.7 70
2018-10-12 16:00:00 17.5 11 Sudoeste 20 Sudoeste 0 909.5 -0.6 73
2018-10-12 15:00:00 15.6 6 Sudoeste 18 Sudoeste 0 909.7 0 98
2018-10-12 14:00:00 14.9 8 Sudoeste 18 Sur 0.5 910.1 0.9 99
2018-10-12 13:00:00 14.8 8 Sudoeste 22 Sur 0 910.1 1.9 98
2018-10-12 12:00:00 14.9 6 Sur 19 Sudoeste 0 909.7 2.1 99
2018-10-12 11:00:00 14.2 9 Sudoeste 17 Sudoeste 0 909.2 2.2 99
2018-10-12 10:00:00 14 5 Sudoeste 11 Sudoeste 0.1 908.2 1.7 99
2018-10-12 09:00:00 13.5 6 Sudoeste 15 Sudoeste 0 907.6 1.6 99
2018-10-12 08:00:00 13.4 6 Sudoeste 18 Sudoeste 0.4 907 1.3 99
2018-10-12 07:00:00 13.3 10 Sudoeste 19 Sudoeste 0 906.5 0.7 99
2018-10-12 06:00:00 13.4 7 Sudoeste 19 Sudoeste 0.1 906 0.1 99
2018-10-12 05:00:00 13.8 9 Sudoeste 20 Sudoeste 0.7 905.7 -0.1 99
2018-10-12 04:00:00 14.1 8 Sudoeste 23 Sudoeste 1.1 905.8 0 99
2018-10-12 03:00:00 14 10 Sur 22 Sur 1.2 905.9 0.6 99
2018-10-12 02:00:00 14.3 5 Sur 13 Sur 0.8 905.8 1.1 99
2018-10-12 01:00:00 14.2 8 Sudoeste 24 Sudoeste 0.1 905.8 1.5 99
2018-10-12 00:00:00 14.1 12 Sudoeste 24 Sur 0 905.3 1.7 98
2018-10-11 23:00:00 14.5 11 Sudoeste 23 Sudoeste 0 904.7 1.6 97
2018-10-11 22:00:00 15.1 10 Sudoeste 22 Sudoeste 0 904.3 2.1 92
2018-10-11 21:00:00 15.4 10 Sudoeste 23 Sudoeste 0 903.6 2.1 91
2018-10-11 20:00:00 15.5 11 Sudoeste 25 Sudoeste 0 903.1 1.9 94
2018-10-11 19:00:00 16 12 Sudoeste 25 Sudoeste 0 902.2 1.2 91
2018-10-11 18:00:00 16.3 10 Sudoeste 25 Sudoeste 0 901.5 0.8 89
2018-10-11 17:00:00 16.1 14 Sudoeste 27 Sudoeste 0 901.2 0.7 91
2018-10-11 16:00:00 15.4 6 Sudoeste 21 Sudoeste 0 901 0 99
2018-10-11 15:00:00 15.1 10 Sudoeste 22 Sudoeste 0.2 900.7 -0.2 99
2018-10-11 14:00:00 13.8 9 Sudoeste 24 Sur 0 900.5 0.5 99
2018-10-11 13:00:00 13.1 8 Sur 17 Sur 1.1 901 1.4 99
2018-10-11 12:00:00 12.6 5 Sur 13 Sur 1.2 900.9 2.5 99
2018-10-11 11:00:00 12.7 4 Sur 16 Sur 0.9 900 2 99
2018-10-11 10:00:00 12 4 Sur 12 Sudeste 2.8 899.6 1.5 99
2018-10-11 09:00:00 11.9 9 Sudeste 14 Sudeste 1.6 898.4 0.6 99
2018-10-11 08:00:00 12.1 9 Sudeste 12 Sur 0 898 0.1 98
2018-10-11 07:00:00 12.5 4 Sur 8 Sudeste 0 898.1 0.3 93
2018-10-11 06:00:00 12.4 4 Sur 8 Sur 0 897.8 -0.4 90
2018-10-11 05:00:00 12.7 4 Sur 15 Sudoeste 0 897.9 -0.2 89
2018-10-11 04:00:00 12.6 8 Sudoeste 14 Sur 0 897.8 -0.4 89
2018-10-11 03:00:00 12.8 7 Sudeste 13 Sudeste 0 898.2 0.5 83
2018-10-11 02:00:00 13 5 Sudeste 8 Sudeste 0 898.1 0.7 82
2018-10-11 01:00:00 13.5 0 Calma 5 Sudoeste 0 898.2 1.1 82
2018-10-11 00:00:00 13.2 2 Sudoeste 8 Oeste 0 897.7 0.8 83
2018-10-10 23:00:00 13.1 3 Noroeste 9 Noroeste 0 897.4 1.2 84
2018-10-10 22:00:00 13.2 5 Noroeste 9 Noroeste 0 897.1 1 84
2018-10-10 21:00:00 12.9 0 Calma 5 Este 0 896.9 0.9 83
2018-10-10 20:00:00 13.5 3 Sudeste 10 Sudeste 0 896.2 0 79
2018-10-10 19:00:00 14.5 8 Sudeste 16 Sur 0 896.1 0.1 74
2018-10-10 18:00:00 15.2 9 Sur 18 Sur 0 896 -0.3 72
2018-10-10 17:00:00 15.6 7 Sudoeste 15 Sudoeste 0 896.2 -0.2 70
2018-10-10 16:00:00 13.6 4 Sudeste 10 Sudeste 0 896 -0.6 85
2018-10-10 15:00:00 12.4 4 Sudoeste 11 Sur 0 896.3 -0.3 91
2018-10-10 14:00:00 11.9 6 Sudeste 13 Sudeste 0 896.4 -0.2 98
2018-10-10 13:00:00 11.3 4 Sur 10 Sur 0.1 896.6 0.4 99
2018-10-10 12:00:00 10.3 4 Sudeste 13 Sudeste 0 896.6 0.6 99
2018-10-10 11:00:00 10.3 0 Calma 13 Sudeste 0.1 896.6 1 99
2018-10-10 10:00:00 10 4 Este 11 Sudeste 0.2 896.2 0.4 99
2018-10-10 09:00:00 10 3 Este 6 Este 0 896 0 98
2018-10-10 08:00:00 9.9 0 Calma 8 Sudeste 0 895.6 -0.7 98
2018-10-10 07:00:00 9.8 6 Este 9 Este 0.4 895.8 -0.8 98
2018-10-10 06:00:00 9.6 6 Nordeste 13 Noroeste 0 896 -1.3 96
2018-10-10 05:00:00 9.9 3 Nordeste 10 Este 0 896.3 -1.3 96
2018-10-10 04:00:00 9.6 6 Nordeste 13 Este 0 896.6 -1.3 97
2018-10-10 03:00:00 9.4 3 Nordeste 10 Nordeste 1.3 897.3 -1 99
2018-10-10 02:00:00 8.9 4 Noroeste 13 Nordeste 0 897.6 -1 99
2018-10-10 01:00:00 8.7 6 Noroeste 16 Nordeste 0.7 897.9 -1.1 99
2018-10-10 00:00:00 8.6 8 Norte 18 Noroeste 1.9 898.3 -0.3 99
2018-10-09 23:00:00 8.9 6 Nordeste 31 Sudeste 0.3 898.6 0.6 97
2018-10-09 22:00:00 9.6 17 Sudeste 35 Sudeste 0 899 1 76
2018-10-09 21:00:00 12 6 Sudeste 25 Este 0 898.6 0.5 60
2018-10-09 20:00:00 12.8 19 Este 32 Este 0 898 -0.2 54
2018-10-09 19:00:00 14.3 13 Sudeste 22 Sudeste 0 898 -0.5 50
2018-10-09 18:00:00 14.9 10 Sudeste 20 Sudeste 0 898.1 -0.9 47
2018-10-09 17:00:00 15.2 10 Este 26 Sudeste 0 898.2 -1.6 47
2018-10-09 16:00:00 15.9 8 Sudeste 32 Sur 0 898.5 -1.8 47
2018-10-09 15:00:00 14.3 13 Este 49 Este 0 899 -1.6 51
2018-10-09 14:00:00 15.5 12 Sudeste 27 Este 0 899.8 -0.9 52
2018-10-09 13:00:00 14.5 8 Este 33 Sudeste 0 900.3 -0.2 55
2018-10-09 12:00:00 13.7 10 Sudeste 35 Sudeste 0 900.6 0.4 57
2018-10-09 11:00:00 13.1 10 Este 21 Este 0 900.7 0.9 61
2018-10-09 10:00:00 11 10 Nordeste 20 Este 0 900.5 0.4 67
2018-10-09 09:00:00 9.3 6 Nordeste 25 Nordeste 0 900.2 -0.2 72
2018-10-09 08:00:00 8.5 9 Nordeste 21 Nordeste 0 899.8 -1 72
2018-10-09 07:00:00 8.6 5 Nordeste 19 Nordeste 0 900.1 -1.4 71
2018-10-09 06:00:00 8.5 8 Nordeste 19 Nordeste 0 900.4 -1.7 70
2018-10-09 05:00:00 8.6 7 Nordeste 19 Nordeste 0 900.8 -1.6 67
2018-10-09 04:00:00 9.9 9 Nordeste 18 Nordeste 0 901.5 -0.9 63
2018-10-09 03:00:00 10 6 Nordeste 17 Nordeste 0 902.1 -0.5 62
2018-10-09 02:00:00 10.6 6 Nordeste 19 Norte 0 902.4 -0.3 60
2018-10-09 01:00:00 10.8 8 Norte 17 Norte 0 902.4 -0.3 57
2018-10-09 00:00:00 11.1 5 Nordeste 21 Este 0 902.6 0.3 55
2018-10-08 23:00:00 11.4 5 Nordeste 31 Sudeste 0 902.7 0.5 54
2018-10-08 22:00:00 12.2 6 Nordeste 20 Sudeste 0 902.7 0.7 53
2018-10-08 21:00:00 13.2 9 Nordeste 20 Este 0 902.3 0 51
2018-10-08 20:00:00 14.1 12 Este 18 Este 0 902.2 -0.3 48
2018-10-08 19:00:00 14.7 10 Sudeste 32 Sudeste 0 902 -0.8 47
2018-10-08 18:00:00 15.5 14 Este 20 Sudeste 0 902.3 -0.7 46
2018-10-08 17:00:00 16.5 8 Este 23 Sudeste 0 902.5 -1.1 45
2018-10-08 16:00:00 16 10 Este 22 Sudeste 0 902.8 -1.2 45
2018-10-08 15:00:00 16.4 8 Sudeste 16 Sudeste 0 903 -1.4 46
2018-10-08 14:00:00 16.4 6 Sudeste 21 Sudeste 0 903.6 -1 47
2018-10-08 13:00:00 14.9 6 Sudeste 28 Sudeste 0 904 -0.2 49
2018-10-08 12:00:00 14.2 8 Sur 15 Sudeste 0 904.4 0.5 50
2018-10-08 11:00:00 12.7 6 Sur 12 Sur 0 904.6 1 52
2018-10-08 10:00:00 11.1 0 Calma 6 Sur 0 904.2 0.7 55
2018-10-08 09:00:00 7.9 0 Calma 6 Sur 0 903.9 0.2 62
2018-10-08 08:00:00 6.8 0 Calma 9 Sudeste 0 903.6 -0.2 62
2018-10-08 07:00:00 7.7 4 Este 10 Nordeste 0 903.5 -0.8 60
2018-10-08 06:00:00 9.1 5 Nordeste 18 Norte 0 903.7 -1.2 56
2018-10-08 05:00:00 8.8 9 Norte 22 Nordeste 0 903.8 -1.4 57
2018-10-08 04:00:00 8.8 10 Norte 25 Noroeste 0 904.3 -1.1 57
2018-10-08 03:00:00 8.6 6 Nordeste 19 Nordeste 0 904.9 -0.9 57
2018-10-08 02:00:00 8.4 5 Nordeste 13 Norte 0 905.2 -0.4 57
2018-10-08 01:00:00 9 7 Norte 18 Nordeste 0 905.4 0.1 53
2018-10-08 00:00:00 9.2 7 Nordeste 20 Norte 0 905.8 1 53
2018-10-07 23:00:00 9.5 8 Nordeste 27 Nordeste 0 905.6 1.1 51
2018-10-07 22:00:00 10.6 10 Nordeste 29 Nordeste 0 905.3 1.4 48
2018-10-07 21:00:00 10.8 8 Nordeste 28 Nordeste 0 904.8 1.3 47
2018-10-07 20:00:00 11.9 11 Nordeste 28 Nordeste 0 904.5 0.5 45
2018-10-07 19:00:00 15.2 6 Noroeste 36 Norte 0 903.9 -0.3 39
2018-10-07 18:00:00 15.6 9 Nordeste 26 Este 0 903.5 -0.9 40
2018-10-07 17:00:00 15.8 13 Nordeste 32 Nordeste 0 904 -1.1 41
2018-10-07 16:00:00 15.3 14 Nordeste 33 Nordeste 0 904.2 -1 42
2018-10-07 15:00:00 14.8 12 Nordeste 39 Nordeste 0 904.4 -0.9 43
2018-10-07 14:00:00 14.3 12 Nordeste 41 Norte 0 905.1 0.2 44
2018-10-07 13:00:00 13.8 14 Norte 41 Nordeste 0 905.2 1 47
2018-10-07 12:00:00 12.4 16 Norte 47 Nordeste 0 905.3 1.5 50
2018-10-07 11:00:00 11.2 23 Norte 42 Nordeste 0 904.9 1.5 52
2018-10-07 10:00:00 9.9 17 Norte 39 Nordeste 0 904.2 1 54
2018-10-07 09:00:00 8.3 12 Nordeste 33 Norte 0 903.8 1.2 57
2018-10-07 08:00:00 8.2 5 Noroeste 18 Oeste 0 903.4 0.9 61
2018-10-07 07:00:00 8.4 3 Oeste 9 Noroeste 0 903.2 0.4 62
2018-10-07 06:00:00 10.2 4 Nordeste 13 Sudeste 0 902.6 -0.3 57
2018-10-07 05:00:00 10.6 6 Este 12 Este 0 902.5 0 57
2018-10-07 04:00:00 11.4 4 Norte 14 Este 0 902.8 0.1 54
2018-10-07 03:00:00 12.2 2 Nordeste 23 Sudoeste 0 902.9 0.2 53
2018-10-07 02:00:00 14.2 11 Noroeste 22 Oeste 0 902.5 -0.4 50
2018-10-07 01:00:00 15 11 Oeste 22 Oeste 0 902.7 0 48
2018-10-07 00:00:00 16 11 Noroeste 25 Norte 0 902.7 0.4 46
2018-10-06 23:00:00 16.9 8 Oeste 24 Oeste 0 902.9 0.8 43
2018-10-06 22:00:00 18 8 Oeste 20 Noroeste 0 902.7 1.3 38
2018-10-06 21:00:00 18.9 5 Oeste 22 Noroeste 0 902.3 0.9 35
2018-10-06 20:00:00 20.3 10 Noroeste 24 Oeste 0 902.1 0.3 33
2018-10-06 19:00:00 22.4 11 Oeste 31 Sudoeste 0 901.4 -0.9 30
2018-10-06 18:00:00 23.5 18 Sudoeste 39 Sudoeste 0 901.4 -1.5 31
2018-10-06 17:00:00 24.4 13 Sudoeste 42 Sudoeste 0 901.8 -2 31
2018-10-06 16:00:00 24.3 13 Sur 30 Sudoeste 0 902.3 -2.1 32
2018-10-06 15:00:00 23.5 16 Sur 30 Sur 0 902.9 -1.9 35
2018-10-06 14:00:00 22 12 Sur 23 Sur 0 903.8 -1.1 37
2018-10-06 13:00:00 21 10 Sur 15 Sudeste 0 904.4 -0.2 39
2018-10-06 12:00:00 19.8 7 Sudeste 13 Este 0 904.8 0.5 41
2018-10-06 11:00:00 18.9 5 Sudeste 9 Este 0 904.9 0.8 42
2018-10-06 10:00:00 17 2 Sudoeste 10 Nordeste 0 904.6 0.9 46
2018-10-06 09:00:00 13.6 8 Norte 13 Norte 0 904.3 1.1 49
2018-10-06 08:00:00 12.6 6 Noroeste 10 Noroeste 0 904.1 1.1 49
2018-10-06 07:00:00 12.9 0 Calma 12 Sudeste 0 903.7 0.3 48
2018-10-06 06:00:00 14 4 Norte 12 Este 0 903.2 -0.4 45
2018-10-06 05:00:00 15.1 4 Este 9 Nordeste 0 903 -0.8 44
2018-10-06 04:00:00 15.3 3 Norte 8 Noroeste 0 903.4 -0.4 45
2018-10-06 03:00:00 15.8 6 Este 8 Este 0 903.6 -0.5 44
2018-10-06 02:00:00 16.3 6 Sudeste 9 Sudeste 0 903.8 -0.2 44
2018-10-06 01:00:00 16.6 4 Noroeste 8 Noroeste 0 903.8 0.1 44
2018-10-06 00:00:00 16.9 4 Noroeste 6 Noroeste 0 904.1 0.6 43
2018-10-05 23:00:00 17.2 4 Noroeste 6 Noroeste 0 904 0.9 42
2018-10-05 22:00:00 18.1 5 Oeste 9 Oeste 0 903.7 0.7 39
2018-10-05 21:00:00 19.4 5 Sudoeste 10 Sudoeste 0 903.5 0.4 37
2018-10-05 20:00:00 20.5 5 Sudoeste 15 Sur 0 903.1 -0.1 36
2018-10-05 19:00:00 22.6 7 Sudoeste 18 Sur 0 903 -0.5 33
2018-10-05 18:00:00 24 8 Sur 18 Sur 0 903.1 -1 33
2018-10-05 17:00:00 23.9 8 Sur 28 Sudeste 0 903.2 -1.5 36
2018-10-05 16:00:00 23.6 8 Sudeste 22 Sudeste 0 903.5 -1.7 37
2018-10-05 15:00:00 22.4 6 Sur 15 Sur 0 904.1 -1.5 41
2018-10-05 14:00:00 21.3 7 Sudeste 36 Este 0 904.7 -1.1 45
2018-10-05 13:00:00 20 5 Este 14 Este 0 905.2 -0.5 50
2018-10-05 12:00:00 18.7 6 Sudeste 14 Sudeste 0 905.6 0.2 53
2018-10-05 11:00:00 17.6 5 Sudeste 23 Sudeste 0 905.8 0.6 57
2018-10-05 10:00:00 16.3 6 Este 14 Sudeste 0 905.7 0.5 61
2018-10-05 09:00:00 13 0 Calma 6 Este 0 905.4 0.4 68
2018-10-05 08:00:00 12.6 0 Calma 3 Sudoeste 0 905.2 0.1 71
2018-10-05 07:00:00 13 0 Calma 4 Este 0 905.2 -0.1 66
2018-10-05 06:00:00 13.2 3 Este 8 Este 0 905 -0.9 59
2018-10-05 05:00:00 14.1 6 Este 8 Este 0 905.1 -0.5 48
2018-10-05 04:00:00 14.2 3 Nordeste 13 Este 0 905.3 -0.3 43
2018-10-05 03:00:00 15 9 Este 20 Este 0 905.9 -0.1 39
2018-10-05 02:00:00 16.8 3 Este 5 Este 0 905.6 -0.4 37
2018-10-05 01:00:00 17.5 0 Calma 6 Noroeste 0 905.6 0.1 37
2018-10-05 00:00:00 16.8 4 Noroeste 8 Noroeste 0 906 0.7 37
2018-10-04 23:00:00 17.7 4 Noroeste 5 Oeste 0 906 0.8 36
2018-10-04 22:00:00 18.5 3 Oeste 8 Sudeste 0 905.5 0.5 34
2018-10-04 21:00:00 19.8 3 Este 9 Sudeste 0 905.3 0.3 33
2018-10-04 20:00:00 21.2 7 Sudeste 13 Sur 0 905.2 -0.1 31
2018-10-04 19:00:00 23.2 8 Sur 18 Sur 0 905 -0.5 30
2018-10-04 18:00:00 24.1 10 Sudeste 19 Sur 0 905 -1 30
2018-10-04 17:00:00 24.6 7 Sur 18 Este 0 905.3 -1.5 29
2018-10-04 16:00:00 24.2 9 Sur 21 Sur 0 905.5 -1.8 30
2018-10-04 15:00:00 23.7 6 Sudeste 19 Sudeste 0 906 -1.6 31
2018-10-04 14:00:00 22.4 5 Sur 23 Sudeste 0 906.8 -1 33
2018-10-04 13:00:00 21 6 Sudeste 23 Este 0 907.3 0.3 33
2018-10-04 12:00:00 20.4 6 Este 16 Sudeste 0 907.6 0.7 36
2018-10-04 11:00:00 18.9 5 Este 10 Este 0 907.8 1.2 39
2018-10-04 10:00:00 17.2 2 Sudeste 16 Este 0 907 0.4 42
2018-10-04 09:00:00 13.5 2 Noroeste 6 Noroeste 0 906.9 0.3 47
2018-10-04 08:00:00 12.7 0 Calma 4 Sudeste 0 906.6 -0.3 47
2018-10-04 07:00:00 13.2 0 Calma 4 Oeste 0 906.6 -0.8 45
2018-10-04 06:00:00 13.4 3 Noroeste 6 Norte 0 906.6 -1.4 45
2018-10-04 05:00:00 14.4 4 Este 7 Este 0 906.9 -1.4 41
2018-10-04 04:00:00 15.1 4 Este 7 Este 0 907.4 -1.3 43
2018-10-04 03:00:00 14.9 4 Noroeste 9 Norte 0 908 -0.6 43
2018-10-04 02:00:00 16.3 4 Nordeste 17 Este 0 908.3 0 40
2018-10-04 01:00:00 16.8 6 Nordeste 24 Nordeste 0 908.7 0.1 39
2018-10-04 00:00:00 17.3 13 Este 23 Nordeste 0 908.6 0.1 36
2018-10-03 23:00:00 18.2 5 Oeste 7 Oeste 0 908.3 -0.1 32
2018-10-03 22:00:00 17.9 4 Noroeste 7 Oeste 0 908.6 0.3 32
2018-10-03 21:00:00 19.3 3 Oeste 6 Sudeste 0 908.5 0.4 30
2018-10-03 20:00:00 21.2 4 Sudeste 12 Sudeste 0 908.4 0.1 28
2018-10-03 19:00:00 22.8 7 Sudeste 16 Sur 0 908.3 -0.5 27
2018-10-03 18:00:00 24 7 Sudeste 23 Sur 0 908.1 -1.3 27
2018-10-03 17:00:00 24.5 10 Sudeste 21 Sudeste 0 908.3 -1.6 27
2018-10-03 16:00:00 24.2 11 Sudeste 22 Este 0 908.8 -1.6 27
2018-10-03 15:00:00 23.9 10 Sudeste 26 Sudeste 0 909.4 -1.3 28
2018-10-03 14:00:00 22.7 9 Sudeste 25 Este 0 909.9 -0.8 30
2018-10-03 13:00:00 22.1 9 Este 32 Sudeste 0 910.4 0.4 31
2018-10-03 12:00:00 20.3 14 Este 25 Este 0 910.7 0.9 33
2018-10-03 11:00:00 18.9 6 Sudeste 14 Sudeste 0 910.7 1.3 34
2018-10-03 10:00:00 16.9 0 Calma 5 Noroeste 0 910 0.8 36
2018-10-03 09:00:00 13.6 3 Noroeste 9 Noroeste 0 909.8 0.6 36
2018-10-03 08:00:00 12.3 4 Noroeste 8 Noroeste 0 909.4 0.1 35
2018-10-03 07:00:00 12.9 5 Noroeste 8 Nordeste 0 909.2 -0.4 35
2018-10-03 06:00:00 12.7 4 Norte 9 Norte 0 909.2 -0.3 35
2018-10-03 05:00:00 12.4 4 Noroeste 8 Noroeste 0 909.3 -0.3 35
2018-10-03 04:00:00 12.7 0 Calma 6 Norte 0 909.6 -0.2 32
2018-10-03 03:00:00 13.6 3 Nordeste 7 Sudeste 0 909.5 -0.2 32
2018-10-03 02:00:00 14.7 3 Sur 6 Noroeste 0 909.6 0 29
2018-10-03 01:00:00 14.8 2 Sudoeste 7 Este 0 909.8 0.5 29
2018-10-03 00:00:00 15.5 5 Norte 11 Noroeste 0 909.7 0.9 29
2018-10-02 23:00:00 16.5 4 Norte 8 Nordeste 0 909.6 1.2 27
2018-10-02 22:00:00 18.3 6 Este 9 Sudeste 0 909.3 1.3 25
2018-10-02 21:00:00 18.8 0 Calma 4 Sudeste 0 908.8 0.7 24
2018-10-02 20:00:00 20.1 2 Sur 9 Sudeste 0 908.4 0.3 23
2018-10-02 19:00:00 22.3 6 Sudeste 12 Este 0 908 -0.5 22
2018-10-02 18:00:00 23.4 6 Sudeste 17 Sudeste 0 908.1 -0.9 21
2018-10-02 17:00:00 23 10 Sudeste 16 Sudeste 0 908.1 -1.4 21
2018-10-02 16:00:00 21.9 4 Este 29 Sudeste 0 908.5 -1.3 22
2018-10-02 15:00:00 21 4 Este 17 Sudeste 0 909 -0.6 24
2018-10-02 14:00:00 19 7 Sudeste 35 Sudeste 0 909.5 0.1 27
2018-10-02 13:00:00 17.6 6 Sur 23 Sur 0 909.8 1.1 30
2018-10-02 12:00:00 16.4 5 Sudeste 12 Sur 0 909.6 1.4 33
2018-10-02 11:00:00 13.9 7 Sur 13 Sudeste 0 909.4 1.8 37
2018-10-02 10:00:00 13.2 3 Sur 10 Sudeste 0 908.7 1.2 33
2018-10-02 09:00:00 12.5 6 Noroeste 12 Norte 0 908.2 0.7 30
2018-10-02 08:00:00 12.3 5 Nordeste 14 Nordeste 0 907.6 -0.2 26
2018-10-02 07:00:00 12.2 7 Nordeste 13 Nordeste 0 907.5 -0.5 30
2018-10-02 06:00:00 9.5 7 Norte 13 Norte 0 907.5 -1 46
2018-10-02 05:00:00 8.9 3 Noroeste 12 Noroeste 0 907.8 -0.5 53
2018-10-02 04:00:00 9 5 Noroeste 12 Noroeste 0 908 -0.2 56
2018-10-02 03:00:00 9.3 3 Este 7 Sudeste 0 908.5 0.5 51
2018-10-02 02:00:00 9.9 0 Calma 7 Sudeste 0 908.3 0.5 48
2018-10-02 01:00:00 11.7 4 Sur 9 Noroeste 0 908.2 0.9 41
2018-10-02 00:00:00 12.7 5 Noroeste 10 Noroeste 0 908 1 38
2018-10-01 23:00:00 14.2 0 Calma 10 Oeste 0 907.8 1.4 36
2018-10-01 22:00:00 15.6 8 Oeste 12 Noroeste 0 907.3 0.7 35
2018-10-01 21:00:00 16.6 3 Norte 16 Norte 0 907 0.7 33
2018-10-01 20:00:00 19.1 6 Este 19 Este 0 906.4 -0.2 30
2018-10-01 19:00:00 21.4 12 Este 21 Este 0 906.6 -0.4 26
2018-10-01 18:00:00 23.1 5 Sudeste 17 Este 0 906.3 -1 26
2018-10-01 17:00:00 23.3 6 Sur 19 Sudeste 0 906.6 -1.1 27
2018-10-01 16:00:00 23 6 Sudeste 20 Este 0 907 -1.2 26
2018-10-01 15:00:00 22.6 10 Sudeste 19 Este 0 907.3 -0.9 27
2018-10-01 14:00:00 21.5 7 Sudeste 23 Nordeste 0 907.7 -0.4 31
2018-10-01 13:00:00 19.9 8 Este 29 Sudeste 0 908.2 0.5 33
2018-10-01 12:00:00 18.3 8 Este 23 Este 0 908.2 1.3 36
2018-10-01 11:00:00 16.7 5 Este 17 Este 0 908.1 1.9 37
2018-10-01 10:00:00 13.4 6 Sudeste 14 Sur 0 907.7 2.1 39
2018-10-01 09:00:00 11 4 Norte 22 Sudeste 0 906.9 1.1 43
2018-10-01 08:00:00 12.5 3 Sudoeste 9 Sur 0 906.2 0.5 39
2018-10-01 07:00:00 13.3 0 Calma 5 Este 0 905.6 -0.3 38
2018-10-01 06:00:00 13.4 4 Este 9 Sudeste 0 905.8 -0.4 39
2018-10-01 05:00:00 13.2 3 Oeste 7 Sur 0 905.7 -0.4 40
2018-10-01 04:00:00 13.3 4 Oeste 10 Norte 0 905.9 -0.2 42
2018-10-01 03:00:00 14.4 3 Oeste 9 Oeste 0 906.2 0.5 42
2018-10-01 02:00:00 16.2 7 Este 22 Este 0 906.1 0.4 35
2018-10-01 01:00:00 17.4 13 Este 21 Este 0 906.1 0.6 37
2018-10-01 00:00:00 19 6 Nordeste 17 Norte 0 905.7 0.6 37
2018-09-30 23:00:00 19.7 7 Norte 14 Norte 0 905.7 0.9 37
2018-09-30 22:00:00 20.6 4 Norte 15 Norte 0 905.5 1.1 37
2018-09-30 21:00:00 21 3 Norte 16 Noroeste 0 905.1 0.7 37
2018-09-30 20:00:00 22.4 7 Noroeste 19 Noroeste 0 904.8 0.3 34
2018-09-30 19:00:00 24.3 0 Calma 13 Norte 0 904.4 -0.2 32
2018-09-30 18:00:00 25.2 5 Este 19 Este 0 904.4 -0.5 30
2018-09-30 17:00:00 27.4 2 Noroeste 24 Oeste 0 904.5 -0.9 29
2018-09-30 16:00:00 27.2 9 Sudoeste 20 Sudoeste 0 904.6 -1 30
2018-09-30 15:00:00 26 7 Sur 20 Sur 0 904.9 -1.1 32
2018-09-30 14:00:00 24.8 9 Sudeste 17 Sur 0 905.4 -0.8 34
2018-09-30 13:00:00 23.9 8 Sudeste 17 Este 0 905.6 -0.2 37
2018-09-30 12:00:00 21.8 6 Este 13 Sudeste 0 906 0.7 40
2018-09-30 11:00:00 20.6 6 Sudeste 13 Sudeste 0 906.2 1.2 43
2018-09-30 10:00:00 19 3 Sudeste 7 Sur 0 905.8 1.3 47
2018-09-30 09:00:00 16 2 Este 6 Este 0 905.3 0.8 53
2018-09-30 08:00:00 15.5 3 Sur 5 Sur 0 905 0.6 51
2018-09-30 07:00:00 15.7 3 Este 7 Este 0 904.5 -0.1 51
2018-09-30 06:00:00 15.7 5 Este 12 Noroeste 0 904.5 0 49
2018-09-30 05:00:00 15.6 4 Noroeste 8 Este 0 904.4 -0.2 50
2018-09-30 04:00:00 16.7 0 Calma 12 Sudeste 0 904.6 0 48
2018-09-30 03:00:00 17.8 5 Nordeste 11 Nordeste 0 904.5 0.1 45
2018-09-30 02:00:00 18.1 6 Nordeste 13 Nordeste 0 904.6 0.4 43
2018-09-30 01:00:00 19.2 8 Nordeste 17 Este 0 904.6 0.4 40
2018-09-30 00:00:00 19.3 3 Nordeste 13 Norte 0 904.4 0.8 39
2018-09-29 23:00:00 19.3 5 Norte 13 Norte 0 904.2 0.7 39
2018-09-29 22:00:00 19.6 4 Noroeste 7 Sudoeste 0 904.2 1 38
2018-09-29 21:00:00 21 4 Sur 7 Sur 0 903.6 0.5 36
2018-09-29 20:00:00 22.3 4 Sur 10 Sudoeste 0 903.5 0.2 35
2018-09-29 19:00:00 23.8 6 Sur 14 Sur 0 903.2 -0.7 33
2018-09-29 18:00:00 25.1 9 Sur 18 Este 0 903.1 -1.4 34
2018-09-29 17:00:00 25.3 8 Sur 19 Sur 0 903.3 -1.8 36
2018-09-29 16:00:00 25.2 9 Sudeste 19 Sudeste 0 903.9 -1.6 36
2018-09-29 15:00:00 24.1 8 Sudeste 19 Este 0 904.5 -1.6 37
2018-09-29 14:00:00 23.6 5 Sur 19 Este 0 905.1 -1.2 39
2018-09-29 13:00:00 22.5 6 Este 16 Sudeste 0 905.5 -0.5 41
2018-09-29 12:00:00 21.3 8 Sudeste 17 Sudeste 0 906.1 0.3 45
2018-09-29 11:00:00 19.8 9 Este 19 Este 0 906.3 0.8 48
2018-09-29 10:00:00 19.1 10 Este 20 Este 0 906 0.5 47
2018-09-29 09:00:00 17.4 9 Este 21 Este 0 905.8 0.2 48
2018-09-29 08:00:00 16.8 5 Nordeste 24 Este 0 905.5 -0.2 47
2018-09-29 07:00:00 16.2 4 Nordeste 13 Nordeste 0 905.5 -0.7 47
2018-09-29 06:00:00 17 4 Nordeste 14 Este 0 905.6 -0.8 46
2018-09-29 05:00:00 16.4 4 Este 7 Este 0 905.7 -0.5 47
2018-09-29 04:00:00 17.2 4 Este 12 Este 0 906.2 -0.2 45
2018-09-29 03:00:00 18 6 Nordeste 23 Nordeste 0 906.4 0 44
2018-09-29 02:00:00 19.2 13 Nordeste 31 Este 0 906.2 -0.1 42
2018-09-29 01:00:00 19.9 18 Nordeste 38 Nordeste 0 906.4 0.3 39
2018-09-29 00:00:00 20 19 Este 27 Nordeste 0 906.4 0.5 37
2018-09-28 23:00:00 19.1 5 Norte 10 Noroeste 0 906.3 0.6 39
2018-09-28 22:00:00 19.8 5 Noroeste 10 Noroeste 0 906.1 0.3 37
2018-09-28 21:00:00 21.8 0 Calma 7 Sudeste 0 905.9 0 32
2018-09-28 20:00:00 23.1 6 Sudeste 32 Sur 0 905.7 -0.5 31
2018-09-28 19:00:00 24.8 8 Sudeste 17 Sudeste 0 905.8 -0.9 31
2018-09-28 18:00:00 25.5 11 Sur 21 Sudeste 0 905.9 -1.4 31
2018-09-28 17:00:00 25.7 14 Este 25 Este 0 906.2 -2 33
2018-09-28 16:00:00 25.7 10 Este 22 Este 0 906.7 -2.1 34
2018-09-28 15:00:00 24.9 8 Sudeste 22 Sudeste 0 907.3 -2.1 38
2018-09-28 14:00:00 23.9 11 Sudeste 23 Este 0 908.2 -1.3 42
2018-09-28 13:00:00 22.8 10 Sudeste 20 Sur 0 908.8 -0.6 45
2018-09-28 12:00:00 21.8 11 Sudeste 20 Sur 0 909.4 0.2 48
2018-09-28 11:00:00 19.9 5 Sudeste 22 Sur 0 909.5 0.3 55
2018-09-28 10:00:00 17.6 0 Calma 9 Norte 0 909.4 0.2 65
2018-09-28 09:00:00 14 4 Noroeste 9 Noroeste 0 909.2 -0.2 75
2018-09-28 08:00:00 13.5 0 Calma 6 Este 0 909.2 -0.4 72
2018-09-28 07:00:00 14.5 4 Este 6 Este 0 909.2 -1.1 66
2018-09-28 06:00:00 14.9 3 Este 5 Nordeste 0 909.4 -1.7 65
2018-09-28 05:00:00 15.5 3 Nordeste 6 Nordeste 0 909.6 -1.7 64
2018-09-28 04:00:00 15.6 2 Nordeste 11 Norte 0 910.3 -1 64
2018-09-28 03:00:00 15.7 5 Norte 9 Nordeste 0 911.1 -0.2 62
2018-09-28 02:00:00 16.9 7 Sudeste 19 Sudeste 0 911.3 -0.1 59
2018-09-28 01:00:00 17 10 Sudeste 19 Este 0 911.3 -0.3 57
2018-09-28 00:00:00 18.1 5 Noroeste 9 Noroeste 0 911.3 -0.3 54
2018-09-27 23:00:00 18.5 5 Noroeste 9 Noroeste 0 911.4 -0.2 54
2018-09-27 22:00:00 19.2 6 Noroeste 26 Sudeste 0 911.6 -0.2 50
2018-09-27 21:00:00 20.6 0 Calma 16 Este 0 911.6 -0.5 46
2018-09-27 20:00:00 21.5 4 Sudeste 14 Sur 0 911.6 -0.7 43
2018-09-27 19:00:00 22.8 10 Sudeste 24 Este 0 911.8 -0.9 42
2018-09-27 18:00:00 23.8 12 Sudeste 30 Sudeste 0 912.1 -1.5 40
2018-09-27 17:00:00 24.3 11 Sudeste 20 Sudeste 0 912.3 -2.3 40
2018-09-27 16:00:00 24.2 2 Este 16 Sur 0 912.7 -2.5 42
2018-09-27 15:00:00 23.3 6 Sudoeste 15 Sudoeste 0 913.6 -2.2 46
2018-09-27 14:00:00 22.2 4 Sudoeste 16 Sur 0 914.6 -1.4 49
2018-09-27 13:00:00 21 4 Sudoeste 28 Este 0 915.2 -0.9 53
2018-09-27 12:00:00 19.2 5 Sudoeste 21 Sudeste 0 915.8 -0.1 58
2018-09-27 11:00:00 17.8 6 Sudoeste 17 Oeste 0 916 0.1 62
2018-09-27 10:00:00 16 8 Oeste 15 Oeste 0 916.1 0.6 73
2018-09-27 09:00:00 13.7 5 Oeste 10 Sudoeste 0 915.9 0.1 85
2018-09-27 08:00:00 13.2 5 Sudoeste 12 Sudoeste 0 915.9 -0.2 86
2018-09-27 07:00:00 13.5 4 Oeste 11 Sudoeste 0 915.5 -1.1 87
2018-09-27 06:00:00 13.7 3 Sudoeste 8 Sudoeste 0 915.8 -0.9 85
2018-09-27 05:00:00 13.9 3 Sudoeste 5 Sudoeste 0 916.1 -0.8 82
2018-09-27 04:00:00 14.3 0 Calma 6 Sudoeste 0 916.6 0.1 79
2018-09-27 03:00:00 15.5 0 Calma 9 Sur 0 916.7 0.3 74
2018-09-27 02:00:00 16.2 6 Sur 15 Sur 0 916.9 0.5 70
2018-09-27 01:00:00 16.7 7 Sudoeste 15 Sudoeste 0 916.5 0.8 69
2018-09-27 00:00:00 17.2 4 Sudoeste 18 Sudoeste 0 916.4 1.6 66
2018-09-26 23:00:00 17.7 5 Sur 19 Sudeste 0 916.4 2.5 64
2018-09-26 22:00:00 18.6 13 Sur 22 Sur 0 915.7 1.9 60
2018-09-26 21:00:00 19.2 2 Sudoeste 13 Sur 0 914.8 0.7 64
2018-09-26 20:00:00 19.9 4 Noroeste 10 Noroeste 0 913.9 0 61
2018-09-26 19:00:00 21.5 4 Noroeste 9 Noroeste 0 913.8 -0.5 58
2018-09-26 18:00:00 21.6 4 Oeste 13 Oeste 0 914.1 -0.6 57
2018-09-26 17:00:00 22.3 4 Oeste 12 Noroeste 0 913.9 -1.1 57
2018-09-26 16:00:00 21.1 3 Norte 13 Oeste 0 914.3 -0.9 64
2018-09-26 15:00:00 20.2 4 Oeste 36 Sudeste 0 914.7 -0.2 66
2018-09-26 14:00:00 19 3 Este 28 Sudeste 0.6 915 0 72
2018-09-26 13:00:00 18.1 3 Sudeste 20 Sudeste 0 915.2 0.9 78
2018-09-26 12:00:00 17.7 2 Noroeste 10 Noroeste 0 914.9 1 87
2018-09-26 11:00:00 16.2 4 Norte 10 Norte 0 915 1.9 95
2018-09-26 10:00:00 15.4 4 Norte 9 Norte 0.1 914.3 1.6 98
2018-09-26 09:00:00 15.4 3 Nordeste 14 Este 0 913.9 1.7 96
2018-09-26 08:00:00 16.8 7 Sudeste 12 Sudeste 0 913.1 0.9 77
2018-09-26 07:00:00 17.1 4 Este 9 Este 0 912.7 0.6 70
2018-09-26 06:00:00 17.3 0 Calma 9 Este 0 912.2 0.2 69
2018-09-26 05:00:00 17.2 5 Nordeste 9 Nordeste 0 912.2 0.3 62
2018-09-26 04:00:00 17.4 6 Este 10 Sudeste 0 912.1 0.6 59
2018-09-26 03:00:00 17.6 6 Este 10 Este 0 912 1.2 53
2018-09-26 02:00:00 17.6 4 Nordeste 9 Nordeste 0 911.9 1.7 48
2018-09-26 01:00:00 18.4 5 Nordeste 13 Este 0 911.5 2.1 45
2018-09-26 00:00:00 19.4 10 Este 26 Este 0 910.8 1.7 42
2018-09-25 23:00:00 20.7 18 Este 39 Este 0 910.2 1.7 40
2018-09-25 22:00:00 22.1 5 Norte 12 Norte 0 909.4 1.4 42
2018-09-25 21:00:00 22.6 0 Calma 10 Este 0 909.1 1.2 42
2018-09-25 20:00:00 24.5 4 Sur 13 Sur 0 908.5 0.2 40
2018-09-25 19:00:00 26.5 3 Sur 12 Sudoeste 0 908 -0.7 37
2018-09-25 18:00:00 26.6 5 Sudoeste 16 Sudeste 0 907.9 -1.5 37
2018-09-25 17:00:00 26.8 8 Sudeste 17 Sudeste 0 908.3 -1.8 37
2018-09-25 16:00:00 26 8 Sudeste 21 Sudeste 0 908.7 -1.8 39
2018-09-25 15:00:00 25.2 5 Sudeste 29 Sudeste 0 909.4 -1.4 39
2018-09-25 14:00:00 24.6 6 Sur 18 Sur 0 910.1 -0.8 34
2018-09-25 13:00:00 23.3 5 Sudeste 28 Sudeste 0 910.5 -0.1 33
2018-09-25 12:00:00 22.2 6 Sudeste 37 Sudeste 0 910.8 0.7 31
2018-09-25 11:00:00 21.2 6 Este 24 Este 0 910.9 1.3 31
2018-09-25 10:00:00 18.5 5 Este 10 Este 0 910.6 1.1 36
2018-09-25 09:00:00 14.7 2 Oeste 5 Oeste 0 910.1 0.7 47
2018-09-25 08:00:00 15.2 0 Calma 9 Nordeste 0 909.6 0.2 46
2018-09-25 07:00:00 15.7 5 Nordeste 14 Nordeste 0 909.5 0 41
2018-09-25 06:00:00 15 2 Norte 14 Nordeste 0 909.4 -0.1 51
2018-09-25 05:00:00 15.8 8 Este 14 Este 0 909.4 -0.1 47
2018-09-25 04:00:00 15.8 3 Oeste 9 Sudoeste 0 909.5 -0.1 51
2018-09-25 03:00:00 17.6 5 Sudoeste 10 Sudoeste 0 909.5 -0.3 50
2018-09-25 02:00:00 18.7 0 Calma 5 Noroeste 0 909.5 -0.1 48
2018-09-25 01:00:00 19.7 0 Calma 14 Sudeste 0 909.6 0.4 46
2018-09-25 00:00:00 21.1 0 Calma 8 Norte 0 909.8 1.1 44
2018-09-24 23:00:00 21.6 3 Norte 18 Este 0 909.6 1.1 42
2018-09-24 22:00:00 22.7 5 Norte 49 Este 0 909.2 0.6 41
2018-09-24 21:00:00 23 10 Este 20 Este 0 908.7 0.1 41
2018-09-24 20:00:00 25.4 9 Nordeste 29 Este 0 908.5 -0.6 37
2018-09-24 19:00:00 26.8 16 Este 25 Este 0 908.6 -1.1 36
2018-09-24 18:00:00 29.1 7 Nordeste 15 Este 0 908.6 -1.6 34
2018-09-24 17:00:00 28.7 3 Norte 16 Sudeste 0 909.1 -1.9 34
2018-09-24 16:00:00 28.1 10 Sudeste 20 Sudeste 0 909.7 -1.8 36
2018-09-24 15:00:00 28.3 10 Sudeste 21 Sudeste 0 910.2 -1.7 37
2018-09-24 14:00:00 27.4 7 Este 31 Sudeste 0 911 -1.1 37
2018-09-24 13:00:00 26.4 9 Este 27 Este 0 911.5 -0.4 39
2018-09-24 12:00:00 25.1 9 Este 23 Este 0 911.9 0.5 41
2018-09-24 11:00:00 23.4 12 Este 37 Sur 0 912.1 1.2 44
2018-09-24 10:00:00 21.4 0 Calma 8 Este 0 911.9 1.2 48
2018-09-24 09:00:00 17.2 5 Noroeste 12 Nordeste 0 911.4 0.9 53
2018-09-24 08:00:00 18.2 2 Norte 14 Nordeste 0 910.9 0.2 52
2018-09-24 07:00:00 18.2 5 Norte 15 Nordeste 0 910.7 -0.2 49
2018-09-24 06:00:00 19.5 4 Nordeste 18 Nordeste 0 910.5 -0.5 48
2018-09-24 05:00:00 19.9 10 Nordeste 19 Nordeste 0 910.7 -0.3 47
2018-09-24 04:00:00 20.8 6 Nordeste 23 Este 0 910.9 -0.2 47
2018-09-24 03:00:00 20.8 13 Nordeste 27 Este 0 911 0.2 42
2018-09-24 02:00:00 21.8 21 Este 32 Este 0 911 0.3 34
2018-09-24 01:00:00 22.2 15 Este 26 Este 0 911.1 0.6 29
2018-09-24 00:00:00 22.6 8 Norte 20 Nordeste 0 910.8 0.6 28
2018-09-23 23:00:00 22.8 8 Norte 17 Nordeste 0 910.7 0.7 28
2018-09-23 22:00:00 23.4 8 Norte 17 Norte 0 910.5 0.9 29
2018-09-23 21:00:00 24.8 9 Norte 24 Norte 0 910.2 0.8 29
2018-09-23 20:00:00 26.5 6 Norte 20 Noroeste 0 910 0.4 27
2018-09-23 19:00:00 29.4 6 Noroeste 14 Noroeste 0 909.6 -0.5 26
2018-09-23 18:00:00 30.1 3 Nordeste 20 Sur 0 909.4 -1.3 27
2018-09-23 17:00:00 30.5 2 Sur 14 Oeste 0 909.6 -1.8 27
2018-09-23 16:00:00 29.9 6 Sur 17 Sur 0 910.1 -1.8 28
2018-09-23 15:00:00 29.4 6 Sur 17 Sudeste 0 910.7 -1.5 29
2018-09-23 14:00:00 28.7 8 Sur 17 Sudoeste 0 911.4 -0.8 30
2018-09-23 13:00:00 28.1 9 Sudeste 18 Sur 0 911.9 0 30
2018-09-23 12:00:00 27.4 3 Sudeste 13 Sudeste 0 912.2 0.8 33
2018-09-23 11:00:00 26 3 Sur 8 Sur 0 912.2 1.2 35
2018-09-23 10:00:00 22.7 3 Noroeste 8 Noroeste 0 911.9 1 39
2018-09-23 09:00:00 20.5 4 Norte 12 Norte 0 911.4 0.5 40
2018-09-23 08:00:00 19.3 6 Noroeste 12 Noroeste 0 911 0.1 39
2018-09-23 07:00:00 18.7 6 Noroeste 10 Norte 0 910.9 -0.2 41
2018-09-23 06:00:00 19.3 4 Noroeste 10 Nordeste 0 910.9 -0.6 40
2018-09-23 05:00:00 20.2 3 Nordeste 12 Nordeste 0 910.9 -0.7 40
2018-09-23 04:00:00 20.1 0 Calma 12 Nordeste 0 911.1 -0.5 35
2018-09-23 03:00:00 20.8 5 Nordeste 9 Este 0 911.5 -0.1 36
2018-09-23 02:00:00 21.1 3 Norte 8 Noroeste 0 911.6 0.1 35
2018-09-23 01:00:00 21.8 4 Nordeste 13 Este 0 911.6 0.6 33
2018-09-23 00:00:00 22.3 2 Norte 10 Norte 0 911.6 1 32
2018-09-22 23:00:00 22.7 6 Norte 12 Norte 0 911.5 1.4 32
2018-09-22 22:00:00 23.2 4 Nordeste 11 Nordeste 0 911 1 32
2018-09-22 21:00:00 24 6 Norte 15 Norte 0 910.6 0.5 32
2018-09-22 20:00:00 26.4 6 Norte 13 Nordeste 0 910.1 0.1 31
2018-09-22 19:00:00 28.3 3 Noroeste 14 Oeste 0 910 -0.4 30
2018-09-22 18:00:00 29.1 5 Noroeste 22 Sudoeste 0 910.1 -0.5 30
2018-09-22 17:00:00 29.5 3 Sudeste 17 Este 0 910 -1.2 31
2018-09-22 16:00:00 28.7 7 Sudoeste 22 Sur 0 910.4 -1.3 33
2018-09-22 15:00:00 28.5 8 Sur 19 Sur 0 910.6 -1 33
2018-09-22 14:00:00 27.6 5 Sudoeste 18 Sudeste 0 911.2 -0.1 35
2018-09-22 13:00:00 26.8 7 Sudeste 16 Sudeste 0 911.7 0.8 37
2018-09-22 12:00:00 25.6 9 Sudeste 15 Sur 0 911.6 1 39
2018-09-22 11:00:00 24.8 5 Sudeste 13 Sur 0 911.3 1.2 41
2018-09-22 10:00:00 20.7 2 Noroeste 8 Noroeste 0 910.9 1 50
2018-09-22 09:00:00 19.4 6 Noroeste 11 Noroeste 0 910.6 0.9 49
2018-09-22 08:00:00 18.2 5 Noroeste 11 Norte 0 910.1 0.7 50
2018-09-22 07:00:00 17.7 3 Noroeste 11 Noroeste 0 909.9 0.2 51
2018-09-22 06:00:00 18.5 6 Norte 18 Nordeste 0 909.7 0 47
2018-09-22 05:00:00 19.3 5 Nordeste 17 Nordeste 0 909.4 -0.2 46
2018-09-22 04:00:00 18.8 3 Nordeste 9 Norte 0 909.7 0.5 48
2018-09-22 03:00:00 19.3 2 Nordeste 8 Este 0 909.7 0.6 47
2018-09-22 02:00:00 19.5 3 Noroeste 7 Norte 0 909.6 1 47
2018-09-22 01:00:00 19.7 4 Noroeste 8 Norte 0 909.2 0.7 45
2018-09-22 00:00:00 20.8 3 Este 16 Norte 0 909.1 1.4 42
2018-09-21 23:00:00 21.5 6 Norte 16 Norte 0 908.6 1.4 41
2018-09-21 22:00:00 22 6 Nordeste 19 Norte 0 908.5 1.4 41
2018-09-21 21:00:00 22.9 8 Norte 19 Norte 0 907.7 1 39
2018-09-21 20:00:00 24.6 5 Nordeste 14 Nordeste 0 907.2 0.3 37
2018-09-21 19:00:00 26.2 3 Nordeste 17 Oeste 0 907.1 0.2 35
2018-09-21 18:00:00 27.2 9 Oeste 22 Sudoeste 0 906.7 -0.6 34
2018-09-21 17:00:00 27 6 Sudoeste 19 Sur 0 906.9 -0.8 35
2018-09-21 16:00:00 27.8 4 Sur 18 Sur 0 906.9 -1.3 35
2018-09-21 15:00:00 26.8 9 Sur 19 Sur 0 907.3 -1.1 36
2018-09-21 14:00:00 27.1 7 Sur 18 Sur 0 907.7 -0.3 37
2018-09-21 13:00:00 26.3 7 Sur 20 Sudeste 0 908.2 0.5 39
2018-09-21 12:00:00 25.2 6 Sudeste 26 Sur 0 908.4 1.6 42
2018-09-21 11:00:00 23.6 2 Sur 17 Sur 0 908 1.6 45
2018-09-21 10:00:00 21.1 2 Sudoeste 7 Noroeste 0 907.7 1.2 51
2018-09-21 09:00:00 18.1 4 Noroeste 10 Noroeste 0 906.8 0.5 55
2018-09-21 08:00:00 18 3 Sur 6 Sudoeste 0 906.4 0.2 53
2018-09-21 07:00:00 17.9 4 Oeste 6 Oeste 0 906.5 0.4 53
2018-09-21 06:00:00 17.8 4 Noroeste 7 Noroeste 0 906.3 -0.2 53
2018-09-21 05:00:00 19.6 0 Calma 11 Este 0 906.2 -0.2 49
2018-09-21 04:00:00 20.4 10 Este 16 Este 0 906.1 -0.5 48
2018-09-21 03:00:00 19.3 6 Norte 11 Norte 0 906.5 -0.3 49
2018-09-21 02:00:00 19.7 3 Noroeste 10 Oeste 0 906.4 -0.3 48
2018-09-21 01:00:00 19.9 0 Calma 6 Noroeste 0 906.6 -0.1 47
2018-09-21 00:00:00 20.3 3 Norte 9 Norte 0 906.8 0.5 46
2018-09-20 23:00:00 21.4 0 Calma 8 Nordeste 0 906.7 0.5 45
2018-09-20 22:00:00 20.6 4 Norte 9 Noroeste 0 906.7 0.3 46
2018-09-20 21:00:00 21.1 5 Oeste 9 Oeste 0 906.3 0.1 44
2018-09-20 20:00:00 22.9 4 Noroeste 20 Oeste 0 906.2 -0.4 41
2018-09-20 19:00:00 25.1 5 Oeste 13 Sudoeste 0 906.4 -0.5 38
2018-09-20 18:00:00 26.6 6 Sudoeste 18 Sur 0 906.2 -1.3 35
2018-09-20 17:00:00 27.2 6 Sudoeste 25 Sur 0 906.6 -1.6 35
2018-09-20 16:00:00 27.8 13 Sur 27 Sur 0 906.9 -1.9 35
2018-09-20 15:00:00 27.2 8 Sudoeste 30 Sudeste 0 907.5 -1.7 38
2018-09-20 14:00:00 26.2 10 Sur 34 Sudeste 0 908.2 -0.8 41
2018-09-20 13:00:00 25.6 5 Sur 28 Sudeste 0 908.8 -0.2 43
2018-09-20 12:00:00 24.2 8 Este 19 Sudeste 0 909.2 0.3 47
2018-09-20 11:00:00 22.5 5 Este 15 Este 0 909 0.4 50
2018-09-20 10:00:00 20.9 4 Este 12 Sudeste 0 909 0.6 55
2018-09-20 09:00:00 18.2 0 Calma 5 Nordeste 0 908.9 0.3 59
2018-09-20 08:00:00 17.2 3 Nordeste 11 Este 0 908.6 0 59
2018-09-20 07:00:00 17.5 0 Calma 4 Nordeste 0 908.4 -0.5 57
2018-09-20 06:00:00 17.7 4 Nordeste 9 Este 0 908.6 -0.3 57
2018-09-20 05:00:00 18.1 4 Nordeste 6 Nordeste 0 908.6 -0.2 56
2018-09-20 04:00:00 19 4 Este 23 Este 0 908.9 -0.3 55
2018-09-20 03:00:00 19.2 5 Sudeste 13 Sudeste 0 908.9 -0.4 55
2018-09-20 02:00:00 19.8 4 Noroeste 6 Noroeste 0 908.8 -0.3 53
2018-09-20 01:00:00 19.3 3 Noroeste 6 Noroeste 0 909.2 0.4 54
2018-09-20 00:00:00 19.7 4 Noroeste 7 Noroeste 0 909.3 1 54